createdAt,value
2022-10-11T00:01:12.225Z,83.5
2022-10-11T00:02:27.508Z,83.7
2022-10-11T00:03:43.806Z,83.8
2022-10-11T00:05:00.106Z,83.9
2022-10-11T00:06:16.411Z,84.1
2022-10-11T00:07:32.692Z,83.9
2022-10-11T00:08:48.996Z,83.8
2022-10-11T00:10:05.284Z,84
2022-10-11T00:11:21.570Z,84
2022-10-11T00:12:37.863Z,84.4
2022-10-11T00:13:54.154Z,84.2
2022-10-11T00:15:10.466Z,84.4
2022-10-11T00:16:26.745Z,84.2
2022-10-11T00:17:43.056Z,84.4
2022-10-11T00:18:58.357Z,84.6
2022-10-11T00:20:14.660Z,84.4
2022-10-11T00:21:30.944Z,84.2
2022-10-11T00:22:47.243Z,84.2
2022-10-11T00:24:03.542Z,84.2
2022-10-11T00:25:19.824Z,84.6
2022-10-11T00:26:36.117Z,84.3
2022-10-11T00:27:52.411Z,84.5
2022-10-11T00:29:08.721Z,84.5
2022-10-11T00:30:25.002Z,84.7
2022-10-11T00:31:41.290Z,84.6
2022-10-11T00:32:57.587Z,85.1
2022-10-11T00:34:13.882Z,84.9
2022-10-11T00:35:29.192Z,85.1
2022-10-11T00:36:45.485Z,85.4
2022-10-11T00:38:01.788Z,85.4
2022-10-11T00:39:18.082Z,85.7
2022-10-11T00:40:34.384Z,86
2022-10-11T00:41:50.672Z,86.1
2022-10-11T00:43:06.951Z,86.1
2022-10-11T00:44:23.243Z,86.2
2022-10-11T00:45:39.553Z,86.5
2022-10-11T00:46:55.839Z,86.2
2022-10-11T00:48:12.127Z,86.2
2022-10-11T00:49:28.433Z,86.1
2022-10-11T00:50:44.728Z,86.1
2022-10-11T00:52:00.043Z,86.1
2022-10-11T00:54:32.630Z,86.2
2022-10-11T00:55:48.907Z,86.5
2022-10-11T00:57:05.202Z,86.3
2022-10-11T00:58:21.509Z,86.5
2022-10-11T00:59:37.788Z,86.3
2022-10-11T01:00:54.096Z,86.4
2022-10-11T01:02:10.395Z,86.4
2022-10-11T01:03:26.680Z,86.5
2022-10-11T01:04:42.969Z,86.4
2022-10-11T01:05:59.271Z,86.4
2022-10-11T01:07:15.573Z,86.6
2022-10-11T01:08:30.865Z,86.3
2022-10-11T01:09:47.166Z,86.2
2022-10-11T01:11:03.475Z,85.9
2022-10-11T01:12:19.750Z,86
2022-10-11T01:13:36.042Z,85.9
2022-10-11T01:14:52.347Z,85.7
2022-10-11T01:16:08.629Z,85.7
2022-10-11T01:17:24.952Z,85.8
2022-10-11T01:18:41.224Z,85.7
2022-10-11T01:19:57.517Z,85.5
2022-10-11T01:21:13.814Z,85.6
2022-10-11T01:22:30.119Z,85.7
2022-10-11T01:23:46.393Z,85.4
2022-10-11T01:25:01.724Z,85.3
2022-10-11T01:26:18.008Z,84.9
2022-10-11T01:27:34.307Z,84.6
2022-10-11T01:28:50.619Z,84.5
2022-10-11T01:30:06.900Z,84.4
2022-10-11T01:31:23.176Z,84.3
2022-10-11T01:32:39.477Z,84.4
2022-10-11T01:33:55.776Z,84.3
2022-10-11T01:35:12.057Z,84
2022-10-11T01:36:28.370Z,83.9
2022-10-11T01:37:44.654Z,84.1
2022-10-11T01:39:00.942Z,84.1
2022-10-11T01:40:17.234Z,84.1
2022-10-11T01:41:32.548Z,84.2
2022-10-11T01:42:48.842Z,84.1
2022-10-11T01:44:05.137Z,84.1
2022-10-11T01:45:21.437Z,84.2
2022-10-11T01:46:37.738Z,84
2022-10-11T01:47:54.016Z,84
2022-10-11T01:49:10.325Z,83.8
2022-10-11T01:50:26.609Z,84
2022-10-11T01:51:42.920Z,84.1
2022-10-11T01:52:59.200Z,84.1
2022-10-11T01:54:15.496Z,84.2
2022-10-11T01:55:31.781Z,84.2
2022-10-11T01:56:48.076Z,84.2
2022-10-11T01:58:03.000Z,84.4
2022-10-11T01:59:19.700Z,84.5
2022-10-11T02:00:35.970Z,84.7
2022-10-11T02:01:52.281Z,84.7
2022-10-11T02:03:08.570Z,84.7
2022-10-11T02:04:24.865Z,84.8
2022-10-11T02:05:41.163Z,84.8
2022-10-11T02:06:57.456Z,84.8
2022-10-11T02:08:13.763Z,84.8
2022-10-11T02:09:30.044Z,84.8
2022-10-11T02:10:46.348Z,84.8
2022-10-11T02:12:02.647Z,84.9
2022-10-11T02:13:18.937Z,85
2022-10-11T02:14:34.225Z,85
2022-10-11T02:15:50.522Z,84.9
2022-10-11T02:17:06.816Z,85
2022-10-11T02:18:23.113Z,85
2022-10-11T02:19:39.414Z,85.1
2022-10-11T02:20:55.719Z,85.2
2022-10-11T02:22:11.989Z,85.4
2022-10-11T02:23:28.303Z,85.5
2022-10-11T02:24:44.575Z,85.7
2022-10-11T02:26:00.875Z,85.8
2022-10-11T02:27:17.162Z,85.8
2022-10-11T02:28:33.455Z,86
2022-10-11T02:29:49.777Z,86.1
2022-10-11T02:31:05.061Z,86.1
2022-10-11T02:32:21.354Z,86.1
2022-10-11T02:33:37.679Z,86.2
2022-10-11T02:34:53.973Z,86.1
2022-10-11T02:36:10.249Z,86.1
2022-10-11T02:37:26.563Z,86
2022-10-11T02:38:42.850Z,86
2022-10-11T02:39:59.151Z,86.1
2022-10-11T02:41:15.416Z,86
2022-10-11T02:42:31.712Z,86
2022-10-11T02:43:48.006Z,86
2022-10-11T02:45:04.330Z,86
2022-10-11T02:46:20.597Z,86
2022-10-11T02:47:35.903Z,86.1
2022-10-11T02:48:52.204Z,86
2022-10-11T02:50:08.512Z,86
2022-10-11T02:51:24.792Z,86.1
2022-10-11T02:52:41.104Z,86.4
2022-10-11T02:53:57.389Z,86.6
2022-10-11T02:55:13.683Z,86.8
2022-10-11T02:56:29.978Z,86.8
2022-10-11T02:57:46.271Z,87
2022-10-11T02:59:02.585Z,87.1
2022-10-11T03:00:18.847Z,87.5
2022-10-11T03:01:35.161Z,87.4
2022-10-11T03:02:51.459Z,87.8
2022-10-11T03:04:06.758Z,87.8
2022-10-11T03:05:23.036Z,87.8
2022-10-11T03:06:39.341Z,88
2022-10-11T03:07:55.639Z,88.1
2022-10-11T03:09:11.943Z,88.2
2022-10-11T03:10:28.231Z,88.3
2022-10-11T03:11:44.518Z,88.3
2022-10-11T03:13:00.809Z,88.4
2022-10-11T03:14:17.119Z,88.9
2022-10-11T03:15:33.394Z,89
2022-10-11T03:16:49.716Z,89.6
2022-10-11T03:18:05.994Z,89.6
2022-10-11T03:19:22.275Z,90
2022-10-11T03:20:37.580Z,90.3
2022-10-11T03:21:53.882Z,90.9
2022-10-11T03:23:10.186Z,91.3
2022-10-11T03:24:26.483Z,91.3
2022-10-11T03:25:42.764Z,91.3
2022-10-11T03:26:59.051Z,90.4
2022-10-11T03:28:14.387Z,90.1
2022-10-11T03:29:30.661Z,89.9
2022-10-11T03:30:46.979Z,89.9
2022-10-11T03:32:03.274Z,89.8
2022-10-11T03:33:19.558Z,89.8
2022-10-11T03:34:35.867Z,89.3
2022-10-11T03:35:52.140Z,89.1
2022-10-11T03:37:08.432Z,88.9
2022-10-11T03:38:24.737Z,88.9
2022-10-11T03:39:41.015Z,89.3
2022-10-11T03:40:57.323Z,89.7
2022-10-11T03:42:13.604Z,90.5
2022-10-11T03:43:29.896Z,90.1
2022-10-11T03:44:45.211Z,89.5
2022-10-11T03:46:01.535Z,89.3
2022-10-11T03:47:17.822Z,89.4
2022-10-11T03:48:34.090Z,89.4
2022-10-11T03:49:50.389Z,89.5
2022-10-11T03:51:06.684Z,89.3
2022-10-11T03:52:22.971Z,89
2022-10-11T03:53:39.270Z,89.1
2022-10-11T03:54:55.584Z,89.3
2022-10-11T03:56:11.872Z,89.2
2022-10-11T03:57:28.176Z,89.5
2022-10-11T03:58:44.459Z,89.5
2022-10-11T04:00:00.741Z,89.7
2022-10-11T04:01:16.069Z,90.3
2022-10-11T04:02:32.351Z,90.4
2022-10-11T04:03:48.641Z,90.6
2022-10-11T04:05:04.963Z,90.6
2022-10-11T04:06:21.227Z,90.3
2022-10-11T04:07:37.537Z,90.5
2022-10-11T04:08:53.820Z,91.6
2022-10-11T04:10:10.120Z,92
2022-10-11T04:11:26.404Z,92.3
2022-10-11T04:12:42.699Z,91.3
2022-10-11T04:13:58.998Z,90
2022-10-11T04:15:15.303Z,89.7
2022-10-11T04:16:31.605Z,89.1
2022-10-11T04:17:46.904Z,89.3
2022-10-11T04:19:03.186Z,90.3
2022-10-11T04:20:19.503Z,90.4
2022-10-11T04:21:35.784Z,91.5
2022-10-11T04:22:52.096Z,91.6
2022-10-11T04:24:08.368Z,91.5
2022-10-11T04:25:24.667Z,91
2022-10-11T04:26:40.973Z,91.4
2022-10-11T04:27:57.246Z,92.4
2022-10-11T04:29:13.538Z,93.1
2022-10-11T04:30:29.830Z,93.4
2022-10-11T04:31:46.129Z,93.2
2022-10-11T04:33:02.433Z,91.6
2022-10-11T04:34:17.728Z,89.8
2022-10-11T04:35:34.043Z,89.1
2022-10-11T04:36:50.337Z,89.6
2022-10-11T04:38:06.624Z,89.7
2022-10-11T04:39:22.909Z,89.9
2022-10-11T04:40:39.230Z,90.3
2022-10-11T04:41:55.511Z,90.8
2022-10-11T04:43:11.784Z,90.5
2022-10-11T04:44:28.097Z,90.4
2022-10-11T04:45:44.375Z,90.5
2022-10-11T04:47:00.666Z,90.5
2022-10-11T04:48:16.972Z,90.5
2022-10-11T04:49:33.262Z,90.2
2022-10-11T04:50:48.575Z,90
2022-10-11T04:52:04.809Z,90.2
2022-10-11T04:53:21.104Z,90.3
2022-10-11T04:54:37.363Z,90.3
2022-10-11T04:55:53.602Z,91
2022-10-11T04:57:09.837Z,91
2022-10-11T04:58:26.085Z,90.9
2022-10-11T04:59:42.339Z,91
2022-10-11T05:00:58.579Z,91
2022-10-11T05:02:14.807Z,90.9
2022-10-11T05:03:31.054Z,90.7
2022-10-11T05:04:47.297Z,90.6
2022-10-11T05:06:03.541Z,90.6
2022-10-11T05:07:18.802Z,90.5
2022-10-11T05:08:35.017Z,90.3
2022-10-11T05:09:51.268Z,90.2
2022-10-11T05:11:07.503Z,90
2022-10-11T05:12:23.750Z,90.5
2022-10-11T05:13:40.004Z,90.6
2022-10-11T05:14:56.241Z,90.6
2022-10-11T05:16:12.468Z,90.5
2022-10-11T05:17:28.705Z,90.5
2022-10-11T05:18:44.958Z,90.7
2022-10-11T05:20:01.194Z,90.9
2022-10-11T05:21:17.437Z,91.5
2022-10-11T05:22:33.668Z,92.4
2022-10-11T05:23:48.938Z,92.7
2022-10-11T05:25:05.172Z,92.7
2022-10-11T05:26:21.400Z,92.7
2022-10-11T05:27:37.649Z,92.9
2022-10-11T05:28:53.888Z,93.1
2022-10-11T05:30:10.138Z,93.3
2022-10-11T05:31:26.367Z,93.4
2022-10-11T05:32:42.612Z,93.4
2022-10-11T05:33:58.851Z,93.7
2022-10-11T05:35:15.097Z,94.4
2022-10-11T05:36:31.337Z,95.6
2022-10-11T05:37:47.570Z,96.6
2022-10-11T05:39:03.813Z,96.7
2022-10-11T05:40:19.060Z,96.7
2022-10-11T05:41:35.299Z,97.1
2022-10-11T05:42:51.556Z,97.5
2022-10-11T05:44:07.796Z,97.6
2022-10-11T05:45:24.027Z,97.4
2022-10-11T05:46:40.269Z,96.8
2022-10-11T05:47:56.518Z,95
2022-10-11T05:49:12.753Z,93.8
2022-10-11T05:50:28.982Z,93.4
2022-10-11T05:51:45.233Z,93.3
2022-10-11T05:53:01.481Z,93.4
2022-10-11T05:54:17.713Z,93.7
2022-10-11T05:55:33.944Z,94.8
2022-10-11T05:56:49.211Z,95.8
2022-10-11T05:58:05.454Z,96.3
2022-10-11T05:59:21.691Z,96.8
2022-10-11T06:00:37.938Z,96.7
2022-10-11T06:01:54.171Z,96.3
2022-10-11T06:03:10.409Z,95.8
2022-10-11T06:04:26.643Z,95.2
2022-10-11T06:05:42.902Z,94.5
2022-10-11T06:06:59.139Z,93.5
2022-10-11T06:08:15.387Z,93.1
2022-10-11T06:09:31.614Z,92.7
2022-10-11T06:10:47.855Z,92.5
2022-10-11T06:12:04.089Z,92.5
2022-10-11T06:13:19.352Z,92.6
2022-10-11T06:14:35.587Z,92.6
2022-10-11T06:15:51.837Z,92.9
2022-10-11T06:17:08.064Z,93.1
2022-10-11T06:18:24.310Z,93
2022-10-11T06:19:40.553Z,93
2022-10-11T06:20:56.806Z,92.7
2022-10-11T06:22:13.038Z,92.1
2022-10-11T06:23:29.273Z,91.9
2022-10-11T06:24:45.521Z,91.4
2022-10-11T06:26:01.754Z,91
2022-10-11T06:27:18.002Z,90.5
2022-10-11T06:28:34.240Z,90
2022-10-11T06:29:49.499Z,89.2
2022-10-11T06:31:05.730Z,88.1
2022-10-11T06:32:21.976Z,87.6
2022-10-11T06:33:38.223Z,87.3
2022-10-11T06:34:54.465Z,87.4
2022-10-11T06:36:10.708Z,87.4
2022-10-11T06:37:26.944Z,87.2
2022-10-11T06:38:43.174Z,86.9
2022-10-11T06:39:59.414Z,85.5
2022-10-11T06:41:15.649Z,83.2
2022-10-11T06:42:31.898Z,81.1
2022-10-11T06:43:48.143Z,78.5
2022-10-11T06:45:04.381Z,75.3
2022-10-11T06:46:19.647Z,72.6
2022-10-11T06:47:35.874Z,70.2
2022-10-11T06:48:52.115Z,68.3
2022-10-11T06:50:08.345Z,66.7
2022-10-11T06:51:24.597Z,66.1
2022-10-11T06:52:40.838Z,65
2022-10-11T06:53:57.081Z,63.5
2022-10-11T06:55:13.312Z,63.1
2022-10-11T06:56:29.564Z,62.6
2022-10-11T06:57:45.803Z,62.7
2022-10-11T06:59:02.042Z,62.4
2022-10-11T07:00:18.281Z,62.2
2022-10-11T07:01:34.522Z,62.3
2022-10-11T07:02:49.780Z,61.7
2022-10-11T07:04:06.011Z,62
2022-10-11T07:05:22.256Z,60.6
2022-10-11T07:06:38.491Z,60.1
2022-10-11T07:07:54.743Z,59.4
2022-10-11T07:09:10.986Z,58.5
2022-10-11T07:10:27.000Z,57.8
2022-10-11T07:11:43.459Z,57.5
2022-10-11T07:12:59.701Z,58.1
2022-10-11T07:14:15.934Z,58.2
2022-10-11T07:15:32.164Z,58.2
2022-10-11T07:16:48.425Z,58
2022-10-11T07:18:04.643Z,57.2
2022-10-11T07:19:19.922Z,56.8
2022-10-11T07:20:36.161Z,55.4
2022-10-11T07:21:52.392Z,55.1
2022-10-11T07:23:08.641Z,54.7
2022-10-11T07:24:24.868Z,54
2022-10-11T07:25:41.110Z,53.9
2022-10-11T07:26:57.348Z,53.6
2022-10-11T07:28:13.591Z,53.7
2022-10-11T07:29:29.842Z,54.3
2022-10-11T07:30:46.081Z,55
2022-10-11T07:32:02.326Z,54.1
2022-10-11T07:33:18.551Z,54
2022-10-11T07:34:34.792Z,53.7
2022-10-11T07:35:50.045Z,53.1
2022-10-11T07:37:06.292Z,53.1
2022-10-11T07:38:22.518Z,52.4
2022-10-11T07:39:38.765Z,52
2022-10-11T07:40:55.014Z,51.2
2022-10-11T07:42:11.238Z,50.6
2022-10-11T07:43:26.510Z,51.7
2022-10-11T07:44:42.749Z,51.3
2022-10-11T07:45:59.002Z,51.5
2022-10-11T07:47:15.236Z,50.9
2022-10-11T07:48:31.483Z,51.7
2022-10-11T07:49:47.000Z,52.6
2022-10-11T07:51:03.944Z,52
2022-10-11T07:52:20.203Z,51.6
2022-10-11T07:53:36.446Z,51.9
2022-10-11T07:54:52.680Z,53
2022-10-11T07:56:08.924Z,52.9
2022-10-11T07:57:25.152Z,52.3
2022-10-11T07:58:41.403Z,51.6
2022-10-11T07:59:56.663Z,50.7
2022-10-11T08:01:12.894Z,50.3
2022-10-11T08:02:29.138Z,49.3
2022-10-11T08:03:45.374Z,49.8
2022-10-11T08:05:01.620Z,49.3
2022-10-11T08:06:17.864Z,48.8
2022-10-11T08:07:34.093Z,47.6
2022-10-11T08:08:50.338Z,47.7
2022-10-11T08:10:06.573Z,48.9
2022-10-11T08:11:22.813Z,47.7
2022-10-11T08:12:39.061Z,48.1
2022-10-11T08:13:55.299Z,47.1
2022-10-11T08:15:11.547Z,48
2022-10-11T08:16:26.809Z,47.9
2022-10-11T08:17:43.032Z,47.7
2022-10-11T08:18:59.277Z,49
2022-10-11T08:20:15.507Z,48.6
2022-10-11T08:21:31.752Z,48.2
2022-10-11T08:22:48.004Z,47.6
2022-10-11T08:24:04.242Z,47
2022-10-11T08:25:20.479Z,47.2
2022-10-11T08:26:36.727Z,47.2
2022-10-11T08:27:52.969Z,46.8
2022-10-11T08:29:09.192Z,46
2022-10-11T08:30:25.455Z,46.7
2022-10-11T08:31:41.682Z,46.8
2022-10-11T08:32:56.949Z,46.9
2022-10-11T08:34:13.179Z,47.1
2022-10-11T08:35:29.417Z,46.7
2022-10-11T08:36:45.661Z,46.8
2022-10-11T08:38:01.909Z,47.4
2022-10-11T08:39:18.146Z,46.8
2022-10-11T08:40:34.382Z,47
2022-10-11T08:41:50.636Z,45.9
2022-10-11T08:43:06.867Z,46.2
2022-10-11T08:44:23.107Z,45.7
2022-10-11T08:45:39.355Z,45.9
2022-10-11T08:46:55.594Z,45.3
2022-10-11T08:48:11.845Z,44.6
2022-10-11T08:49:27.086Z,43.8
2022-10-11T08:50:43.340Z,44.1
2022-10-11T08:51:59.574Z,44
2022-10-11T08:53:15.816Z,43
2022-10-11T08:54:32.047Z,44.5
2022-10-11T08:55:48.303Z,46.9
2022-10-11T08:57:04.537Z,47.4
2022-10-11T08:58:20.764Z,47.4
2022-10-11T08:59:37.021Z,46.8
2022-10-11T09:00:53.256Z,45.3
2022-10-11T09:02:09.501Z,43.8
2022-10-11T09:03:25.746Z,43.2
2022-10-11T09:04:41.973Z,43.2
2022-10-11T09:05:57.248Z,43.3
2022-10-11T09:07:13.482Z,42.8
2022-10-11T09:08:29.717Z,42.3
2022-10-11T09:09:45.962Z,42.5
2022-10-11T09:11:02.193Z,42
2022-10-11T09:12:18.453Z,41.6
2022-10-11T09:13:34.687Z,41.5
2022-10-11T09:14:50.931Z,43
2022-10-11T09:16:07.169Z,44.5
2022-10-11T09:17:23.404Z,43.8
2022-10-11T09:18:39.651Z,44.9
2022-10-11T09:19:55.891Z,45.1
2022-10-11T09:21:12.135Z,46.9
2022-10-11T09:22:27.382Z,48.2
2022-10-11T09:23:43.641Z,48.3
2022-10-11T09:24:59.873Z,48
2022-10-11T09:26:16.119Z,47.3
2022-10-11T09:27:32.349Z,48.9
2022-10-11T09:28:48.598Z,49.8
2022-10-11T09:30:04.827Z,50.9
2022-10-11T09:31:21.077Z,50.7
2022-10-11T09:32:37.323Z,51.8
2022-10-11T09:33:53.559Z,51.4
2022-10-11T09:35:09.800Z,51.9
2022-10-11T09:36:26.053Z,52
2022-10-11T09:37:42.275Z,49.9
2022-10-11T09:38:57.553Z,49.9
2022-10-11T09:40:13.786Z,50.6
2022-10-11T09:41:30.014Z,51
2022-10-11T09:42:46.253Z,52.1
2022-10-11T09:44:02.000Z,52
2022-10-11T09:45:18.740Z,53.4
2022-10-11T09:46:34.979Z,52.8
2022-10-11T09:47:51.213Z,54.1
2022-10-11T09:49:07.469Z,54.9
2022-10-11T09:50:23.699Z,55.5
2022-10-11T09:51:39.954Z,55.4
2022-10-11T09:52:56.178Z,55.2
2022-10-11T09:54:12.431Z,53.3
2022-10-11T09:55:27.679Z,51.1
2022-10-11T09:56:43.918Z,49.2
2022-10-11T09:58:00.166Z,47.8
2022-10-11T09:59:16.408Z,46
2022-10-11T10:00:32.650Z,44.9
2022-10-11T10:01:48.881Z,46.4
2022-10-11T10:03:05.119Z,48.3
2022-10-11T10:04:21.365Z,49.7
2022-10-11T10:05:37.614Z,51.5
2022-10-11T10:08:10.080Z,52.2
2022-10-11T10:10:42.567Z,50.4
2022-10-11T10:11:57.820Z,49.5
2022-10-11T10:13:14.068Z,49.5
2022-10-11T10:14:30.297Z,49.6
2022-10-11T10:15:46.541Z,51.2
2022-10-11T10:17:02.791Z,52.1
2022-10-11T10:18:19.022Z,52.4
2022-10-11T10:19:35.268Z,52.8
2022-10-11T10:20:51.496Z,53.9
2022-10-11T10:22:07.735Z,53.2
2022-10-11T10:23:23.991Z,54.9
2022-10-11T10:24:40.238Z,54.9
2022-10-11T10:25:56.469Z,55.2
2022-10-11T10:27:12.716Z,54.8
2022-10-11T10:28:27.968Z,54.9
2022-10-11T10:29:44.209Z,53.7
2022-10-11T10:31:00.460Z,52.5
2022-10-11T10:32:16.709Z,51.5
2022-10-11T10:33:32.941Z,51.2
2022-10-11T10:34:49.171Z,50
2022-10-11T10:36:05.417Z,50.3
2022-10-11T10:37:21.650Z,50.9
2022-10-11T10:38:37.890Z,50.9
2022-10-11T10:39:54.137Z,52.6
2022-10-11T10:41:10.369Z,52.3
2022-10-11T10:42:26.631Z,53.9
2022-10-11T10:43:42.853Z,54.5
2022-10-11T10:44:58.110Z,54.4
2022-10-11T10:46:14.355Z,55
2022-10-11T10:47:30.593Z,56.4
2022-10-11T10:48:46.823Z,56.2
2022-10-11T10:50:03.086Z,55.2
2022-10-11T10:51:19.308Z,54.6
2022-10-11T10:52:35.550Z,53.7
2022-10-11T10:53:51.789Z,53.5
2022-10-11T10:56:24.272Z,51.8
2022-10-11T10:57:40.517Z,51.1
2022-10-11T10:58:56.747Z,49.5
2022-10-11T11:00:12.989Z,49.3
2022-10-11T11:01:28.239Z,48.9
2022-10-11T11:02:44.490Z,47.6
2022-10-11T11:04:00.724Z,47.6
2022-10-11T11:05:16.964Z,46.8
2022-10-11T11:06:33.203Z,46.7
2022-10-11T11:07:49.461Z,46.8
2022-10-11T11:09:05.696Z,47.7
2022-10-11T11:10:21.940Z,48.1
2022-10-11T11:11:38.174Z,49.4
2022-10-11T11:12:54.426Z,49.4
2022-10-11T11:14:10.656Z,50.4
2022-10-11T11:15:26.916Z,48
2022-10-11T11:16:43.137Z,47.2
2022-10-11T11:17:58.401Z,47.8
2022-10-11T11:19:14.645Z,48.8
2022-10-11T11:20:30.877Z,49.4
2022-10-11T11:21:47.113Z,49.1
2022-10-11T11:23:03.371Z,50.9
2022-10-11T11:24:19.588Z,51.3
2022-10-11T11:25:35.834Z,50.8
2022-10-11T11:26:52.074Z,52.1
2022-10-11T11:28:08.312Z,51.5
2022-10-11T11:29:24.558Z,52.2
2022-10-11T11:30:40.806Z,53.2
2022-10-11T11:31:57.036Z,53.9
2022-10-11T11:33:13.275Z,53.7
2022-10-11T11:34:28.532Z,53.8
2022-10-11T11:35:44.788Z,54.8
2022-10-11T11:37:01.015Z,53.5
2022-10-11T11:38:17.257Z,53.3
2022-10-11T11:39:33.494Z,52.3
2022-10-11T11:40:49.739Z,48
2022-10-11T11:42:05.983Z,48.8
2022-10-11T11:43:22.211Z,49.7
2022-10-11T11:44:38.448Z,49.9
2022-10-11T11:45:54.706Z,49.3
2022-10-11T11:47:10.933Z,49.4
2022-10-11T11:48:27.181Z,50.1
2022-10-11T11:49:43.407Z,47.5
2022-10-11T11:50:58.675Z,47.6
2022-10-11T11:52:14.909Z,44
2022-10-11T11:53:31.152Z,46.6
2022-10-11T11:54:47.403Z,47.9
2022-10-11T11:56:03.628Z,47.2
2022-10-11T11:57:19.882Z,46.7
2022-10-11T11:58:35.151Z,47.6
2022-10-11T11:59:51.376Z,47.5
2022-10-11T12:01:07.618Z,48.1
2022-10-11T12:02:23.863Z,48.9
2022-10-11T12:03:40.103Z,48.1
2022-10-11T12:04:56.328Z,48.4
2022-10-11T12:06:12.572Z,49.4
2022-10-11T12:07:28.831Z,50.6
2022-10-11T12:08:45.060Z,50.7
2022-10-11T12:10:01.294Z,49.6
2022-10-11T12:11:17.552Z,49.2
2022-10-11T12:12:33.772Z,50.7
2022-10-11T12:13:50.014Z,49.3
2022-10-11T12:15:05.278Z,49
2022-10-11T12:16:21.515Z,48.6
2022-10-11T12:17:37.749Z,47.7
2022-10-11T12:18:53.991Z,49.3
2022-10-11T12:20:10.246Z,48.5
2022-10-11T12:21:26.474Z,48.5
2022-10-11T12:22:42.721Z,48.2
2022-10-11T12:23:58.951Z,48.7
2022-10-11T12:25:15.187Z,48.1
2022-10-11T12:26:31.431Z,48.1
2022-10-11T12:27:47.687Z,47.9
2022-10-11T12:29:03.914Z,47.2
2022-10-11T12:30:20.158Z,47
2022-10-11T12:31:35.407Z,47.1
2022-10-11T12:32:51.649Z,47.5
2022-10-11T12:34:07.903Z,46
2022-10-11T12:35:24.133Z,46.9
2022-10-11T12:36:40.372Z,47.1
2022-10-11T12:37:56.618Z,47.1
2022-10-11T12:39:12.861Z,46.8
2022-10-11T12:40:29.095Z,45.4
2022-10-11T12:41:45.329Z,46.3
2022-10-11T12:43:01.576Z,46.4
2022-10-11T12:44:17.813Z,45.1
2022-10-11T12:45:34.058Z,44.5
2022-10-11T12:46:50.308Z,45
2022-10-11T12:48:05.545Z,44.9
2022-10-11T12:49:21.786Z,44.4
2022-10-11T12:50:38.042Z,45.6
2022-10-11T12:51:54.266Z,46.8
2022-10-11T12:53:10.513Z,46.6
2022-10-11T12:54:26.747Z,47.2
2022-10-11T12:55:42.991Z,46.2
2022-10-11T12:56:59.229Z,46.3
2022-10-11T12:58:15.478Z,46.5
2022-10-11T12:59:31.723Z,46.8
2022-10-11T13:00:47.947Z,47.4
2022-10-11T13:02:04.193Z,47.5
2022-10-11T13:03:20.439Z,47.1
2022-10-11T13:04:35.685Z,46.2
2022-10-11T13:05:51.921Z,46.2
2022-10-11T13:07:08.165Z,47.3
2022-10-11T13:08:24.415Z,47.1
2022-10-11T13:09:40.655Z,46.9
2022-10-11T13:10:56.884Z,44.2
2022-10-11T13:12:13.123Z,42.9
2022-10-11T13:13:29.380Z,43.2
2022-10-11T13:14:45.614Z,42.4
2022-10-11T13:16:01.862Z,44.4
2022-10-11T13:17:18.088Z,43.6
2022-10-11T13:18:34.343Z,44.1
2022-10-11T13:19:50.584Z,45.4
2022-10-11T13:21:05.831Z,44.6
2022-10-11T13:22:22.090Z,43.5
2022-10-11T13:23:38.307Z,43.9
2022-10-11T13:24:54.555Z,44.9
2022-10-11T13:26:10.809Z,45.4
2022-10-11T13:27:27.043Z,46.9
2022-10-11T13:28:43.278Z,45.8
2022-10-11T13:29:59.525Z,45.6
2022-10-11T13:31:15.756Z,45.3
2022-10-11T13:32:32.007Z,45
2022-10-11T13:33:48.239Z,45.1
2022-10-11T13:35:04.491Z,45.4
2022-10-11T13:36:20.711Z,46.3
2022-10-11T13:37:35.976Z,46.5
2022-10-11T13:38:52.214Z,47.1
2022-10-11T13:40:08.457Z,47.7
2022-10-11T13:41:24.700Z,47.9
2022-10-11T13:42:40.936Z,47.3
2022-10-11T13:43:57.173Z,47.4
2022-10-11T13:45:13.408Z,47.2
2022-10-11T13:46:29.650Z,46.7
2022-10-11T13:47:45.896Z,47.3
2022-10-11T13:49:02.132Z,46.6
2022-10-11T13:50:18.387Z,46.1
2022-10-11T13:51:34.612Z,46.4
2022-10-11T13:52:50.865Z,45.9
2022-10-11T13:54:06.108Z,46.1
2022-10-11T13:55:22.350Z,47.1
2022-10-11T13:56:38.593Z,46.9
2022-10-11T13:57:54.841Z,46.2
2022-10-11T13:59:11.075Z,46.1
2022-10-11T14:00:27.319Z,46
2022-10-11T14:01:43.556Z,45.7
2022-10-11T14:02:59.790Z,46.6
2022-10-11T14:04:16.039Z,45.8
2022-10-11T14:05:32.285Z,47
2022-10-11T14:06:48.518Z,46.8
2022-10-11T14:08:04.749Z,46.4
2022-10-11T14:09:20.992Z,45.6
2022-10-11T14:10:36.254Z,46
2022-10-11T14:11:52.484Z,46.6
2022-10-11T14:13:08.738Z,47
2022-10-11T14:14:24.965Z,47.7
2022-10-11T14:15:41.207Z,46.6
2022-10-11T14:16:57.457Z,48
2022-10-11T14:18:13.693Z,48.1
2022-10-11T14:19:29.936Z,47.5
2022-10-11T14:20:46.176Z,47.6
2022-10-11T14:22:02.407Z,46.2
2022-10-11T14:23:18.651Z,47.5
2022-10-11T14:24:34.900Z,47.5
2022-10-11T14:25:51.125Z,47.5
2022-10-11T14:27:06.390Z,47.6
2022-10-11T14:28:22.632Z,46.8
2022-10-11T14:29:38.875Z,46.7
2022-10-11T14:30:55.102Z,47
2022-10-11T14:32:11.343Z,46.5
2022-10-11T14:33:27.583Z,46.3
2022-10-11T14:34:43.823Z,45.4
2022-10-11T14:36:00.070Z,45.6
2022-10-11T14:37:16.301Z,45
2022-10-11T14:38:32.560Z,45.1
2022-10-11T14:39:48.784Z,45.6
2022-10-11T14:41:05.028Z,46.2
2022-10-11T14:42:21.265Z,46
2022-10-11T14:43:36.518Z,46.9
2022-10-11T14:44:52.761Z,47.8
2022-10-11T14:46:08.997Z,49
2022-10-11T14:47:25.246Z,50.3
2022-10-11T14:48:41.492Z,50
2022-10-11T14:49:57.722Z,50.6
2022-10-11T14:51:13.976Z,50.8
2022-10-11T14:52:30.198Z,50.7
2022-10-11T14:53:46.445Z,50.4
2022-10-11T14:55:02.678Z,50.7
2022-10-11T14:56:18.919Z,51.2
2022-10-11T14:57:35.166Z,51.9
2022-10-11T14:58:51.402Z,52.4
2022-10-11T15:00:06.667Z,52.1
2022-10-11T15:01:22.908Z,52.4
2022-10-11T15:02:39.141Z,52.8
2022-10-11T15:03:55.386Z,52.9
2022-10-11T15:05:11.618Z,53.6
2022-10-11T15:06:27.861Z,53
2022-10-11T15:07:44.094Z,52.5
2022-10-11T15:09:00.337Z,52.3
2022-10-11T15:10:16.577Z,52.7
2022-10-11T15:11:32.833Z,52.6
2022-10-11T15:12:49.065Z,52.9
2022-10-11T15:14:05.300Z,52.6
2022-10-11T15:15:21.540Z,52.7
2022-10-11T15:16:36.791Z,53.3
2022-10-11T15:17:53.041Z,53.1
2022-10-11T15:19:09.273Z,52.9
2022-10-11T15:20:25.511Z,53.2
2022-10-11T15:21:41.760Z,53.4
2022-10-11T15:22:57.998Z,52.9
2022-10-11T15:24:14.240Z,52.8
2022-10-11T15:25:30.479Z,51.5
2022-10-11T15:26:46.725Z,50.4
2022-10-11T15:28:02.956Z,49.5
2022-10-11T15:29:19.195Z,49.6
2022-10-11T15:30:35.438Z,49.1
2022-10-11T15:31:51.685Z,49.8
2022-10-11T15:33:06.937Z,50.7
2022-10-11T15:34:23.173Z,51.2
2022-10-11T15:35:39.416Z,52.1
2022-10-11T15:36:55.655Z,52.9
2022-10-11T15:38:11.897Z,54.2
2022-10-11T15:39:28.137Z,53.9
2022-10-11T15:40:44.383Z,54.9
2022-10-11T15:42:00.609Z,55.5
2022-10-11T15:43:16.852Z,56.5
2022-10-11T15:44:33.094Z,57.6
2022-10-11T15:45:49.336Z,57.8
2022-10-11T15:47:05.567Z,57.7
2022-10-11T15:48:21.814Z,58.9
2022-10-11T15:49:37.071Z,59.1
2022-10-11T15:50:53.322Z,59.4
2022-10-11T15:52:09.544Z,59.9
2022-10-11T15:53:25.803Z,60.3
2022-10-11T15:54:42.043Z,60.6
2022-10-11T15:55:58.279Z,60.5
2022-10-11T15:57:14.510Z,60.5
2022-10-11T15:58:30.756Z,60.6
2022-10-11T15:59:46.985Z,61.3
2022-10-11T16:01:03.235Z,60.6
2022-10-11T16:02:19.480Z,61
2022-10-11T16:03:35.718Z,61.4
2022-10-11T16:04:51.959Z,61.9
2022-10-11T16:06:07.203Z,62.3
2022-10-11T16:07:23.460Z,62.6
2022-10-11T16:08:39.690Z,63
2022-10-11T16:09:55.927Z,63.1
2022-10-11T16:11:12.169Z,63.2
2022-10-11T16:12:28.406Z,63.3
2022-10-11T16:13:43.673Z,63.4
2022-10-11T16:14:59.901Z,63.8
2022-10-11T16:16:16.150Z,63.6
2022-10-11T16:17:32.389Z,64.3
2022-10-11T16:18:48.630Z,64.7
2022-10-11T16:20:04.877Z,65.4
2022-10-11T16:21:21.105Z,65.5
2022-10-11T16:22:37.351Z,66
2022-10-11T16:23:53.582Z,66.8
2022-10-11T16:25:09.832Z,67
2022-10-11T16:26:26.071Z,67.3
2022-10-11T16:27:42.322Z,67.6
2022-10-11T16:28:58.551Z,68
2022-10-11T16:30:13.808Z,68.5
2022-10-11T16:31:30.050Z,68.7
2022-10-11T16:32:46.288Z,68.9
2022-10-11T16:34:02.530Z,69
2022-10-11T16:35:18.768Z,69.1
2022-10-11T16:36:35.002Z,69.3
2022-10-11T16:37:51.257Z,69.2
2022-10-11T16:39:07.487Z,69.4
2022-10-11T16:40:23.731Z,69.3
2022-10-11T16:41:39.970Z,69.5
2022-10-11T16:42:56.205Z,69.8
2022-10-11T16:44:12.443Z,69.7
2022-10-11T16:45:28.691Z,69.9
2022-10-11T16:46:43.939Z,70.1
2022-10-11T16:48:00.184Z,70.3
2022-10-11T16:49:16.429Z,70.7
2022-10-11T16:50:32.711Z,70.6
2022-10-11T16:51:48.953Z,70.6
2022-10-11T16:53:05.263Z,70.8
2022-10-11T16:54:21.539Z,71.3
2022-10-11T16:55:37.785Z,71.2
2022-10-11T16:56:54.020Z,71.4
2022-10-11T16:58:10.331Z,71.9
2022-10-11T16:59:26.614Z,71.8
2022-10-11T17:00:42.904Z,72.3
2022-10-11T17:01:59.196Z,72.5
2022-10-11T17:03:14.513Z,72.9
2022-10-11T17:04:30.812Z,72.6
2022-10-11T17:05:47.107Z,72.9
2022-10-11T17:07:03.391Z,73.2